Time;durP1;ratioP1;P1;durP2;ratioP2;P2;SDS_P1;SDS_P2;PMS_P1;PMS_P2;Temp;Humidity;BMP_temperature;BMP_pressure;BME280_temperature;BME280_humidity;BME280_pressure;Samples;Min_cycle;Max_cycle;Signal;HPM_P1;HPM_P2
2022/11/26 00:00:24;;;;;;;9.82;4.78;;;;;;;;;;1039584;28;20492;-78
2022/11/26 00:00:55;;;;;;;19.88;5.55;;;;;;;;;;1039613;28;20033;-78
2022/11/26 00:01:26;;;;;;;12.50;5.65;;;;;;;;;;1039309;28;20053;-78
2022/11/26 00:02:13;;;;;;;9.60;5.38;;;;;;;;;;1039746;28;20047;-78
2022/11/26 00:02:44;;;;;;;10.45;5.05;;;;;;;;;;1039211;28;20022;-78
2022/11/26 00:03:14;;;;;;;18.50;7.28;;;;;;;;;;1039436;28;20029;-77
2022/11/26 00:03:45;;;;;;;9.02;5.20;;;;;;;;;;1039319;28;20014;-77
2022/11/26 00:04:16;;;;;;;10.50;5.28;;;;;;;;;;1035070;28;20041;-77
2022/11/26 00:04:47;;;;;;;10.75;5.40;;;;;;;;;;1039169;28;20389;-77
2022/11/26 00:05:18;;;;;;;9.48;5.03;;;;;;;;;;1039356;28;20049;-77
2022/11/26 00:05:50;;;;;;;13.40;5.35;;;;;;;;;;1037430;28;20436;-77
2022/11/26 00:06:21;;;;;;;15.07;5.38;;;;;;;;;;1041201;28;20116;-77
2022/11/26 00:06:51;;;;;;;18.80;6.55;;;;;;;;;;1037095;28;20433;-77
2022/11/26 00:07:25;;;;;;;14.88;6.03;;;;;;;;;;1032342;28;20581;-77
2022/11/26 00:07:56;;;;;;;18.20;4.97;;;;;;;;;;1035187;28;20022;-77
2022/11/26 00:08:29;;;;;;;13.40;5.68;;;;;;;;;;1035005;28;20374;-78
2022/11/26 00:09:00;;;;;;;14.98;5.47;;;;;;;;;;1035910;28;20022;-78
2022/11/26 00:09:31;;;;;;;10.68;5.93;;;;;;;;;;1039390;28;20052;-78
2022/11/26 00:10:04;;;;;;;10.68;5.85;;;;;;;;;;1039465;28;20495;-78
2022/11/26 00:10:35;;;;;;;11.38;5.78;;;;;;;;;;1039007;28;20028;-78
2022/11/26 00:11:07;;;;;;;9.23;4.40;;;;;;;;;;1038619;28;20032;-78
2022/11/26 00:11:37;;;;;;;15.95;4.97;;;;;;;;;;1043590;28;20024;-78
2022/11/26 00:12:13;;;;;;;16.15;6.10;;;;;;;;;;1039320;28;20555;-78
2022/11/26 00:12:44;;;;;;;12.60;5.75;;;;;;;;;;1039610;28;20564;-78
2022/11/26 00:13:16;;;;;;;10.23;5.35;;;;;;;;;;1039376;28;20021;-78
2022/11/26 00:13:47;;;;;;;8.90;4.72;;;;;;;;;;1036207;28;20243;-78
2022/11/26 00:14:17;;;;;;;6.43;3.65;;;;;;;;;;1039493;28;20068;-78
2022/11/26 00:14:48;;;;;;;15.20;4.75;;;;;;;;;;1039196;28;20026;-78
2022/11/26 00:15:20;;;;;;;19.40;6.07;;;;;;;;;;1039616;28;20021;-77
2022/11/26 00:15:51;;;;;;;13.57;5.32;;;;;;;;;;1039105;28;20049;-77
2022/11/26 00:16:21;;;;;;;11.27;4.97;;;;;;;;;;1039729;28;20028;-77
2022/11/26 00:16:52;;;;;;;11.38;6.15;;;;;;;;;;1039224;28;20128;-77
2022/11/26 00:17:22;;;;;;;13.00;6.22;;;;;;;;;;1035272;28;20555;-77
2022/11/26 00:17:53;;;;;;;15.23;4.85;;;;;;;;;;1035131;28;20021;-77
2022/11/26 00:18:25;;;;;;;16.42;4.63;;;;;;;;;;1035818;28;20497;-77
2022/11/26 00:18:56;;;;;;;10.68;3.47;;;;;;;;;;1035173;28;20026;-77
2022/11/26 00:19:26;;;;;;;10.05;4.97;;;;;;;;;;1039711;28;20022;-77
2022/11/26 00:19:57;;;;;;;10.60;4.90;;;;;;;;;;1039173;28;20091;-77
2022/11/26 00:20:29;;;;;;;10.57;6.22;;;;;;;;;;1039482;28;20105;-77
2022/11/26 00:20:59;;;;;;;9.05;4.25;;;;;;;;;;1039577;28;20536;-77
2022/11/26 00:21:32;;;;;;;10.55;5.82;;;;;;;;;;1039278;28;20155;-77
2022/11/26 00:22:03;;;;;;;11.38;5.05;;;;;;;;;;1035107;28;20081;-77
2022/11/26 00:22:38;;;;;;;15.73;5.30;;;;;;;;;;1035633;28;20096;-77
2022/11/26 00:23:18;;;;;;;17.25;5.55;;;;;;;;;;1035845;28;20064;-77
2022/11/26 00:23:49;;;;;;;11.05;5.85;;;;;;;;;;1041191;28;20140;-77
2022/11/26 00:24:26;;;;;;;20.60;6.55;;;;;;;;;;1043431;28;20041;-77
2022/11/26 00:24:57;;;;;;;13.00;5.78;;;;;;;;;;1039169;28;20515;-77
2022/11/26 00:25:48;;;;;;;18.23;4.38;;;;;;;;;;1039494;28;20025;-77
2022/11/26 00:26:20;;;;;;;18.55;6.63;;;;;;;;;;1038654;28;20041;-77
2022/11/26 00:26:51;;;;;;;6.72;4.78;;;;;;;;;;1039446;28;20330;-77
2022/11/26 00:27:24;;;;;;;9.98;3.72;;;;;;;;;;1039165;28;20016;-77
2022/11/26 00:27:56;;;;;;;10.80;5.35;;;;;;;;;;1039309;28;20124;-77
2022/11/26 00:28:31;;;;;;;12.25;4.55;;;;;;;;;;1039513;28;20020;-77
2022/11/26 00:29:02;;;;;;;15.88;4.32;;;;;;;;;;1034485;28;20018;-77
2022/11/26 00:29:32;;;;;;;9.68;4.47;;;;;;;;;;1036123;28;20490;-77
2022/11/26 00:30:23;;;;;;;9.63;6.38;;;;;;;;;;1039281;28;20022;-77
2022/11/26 00:30:56;;;;;;;11.38;4.43;;;;;;;;;;1041897;28;20033;-77
2022/11/26 00:31:27;;;;;;;8.85;5.22;;;;;;;;;;1040611;28;20022;-77
2022/11/26 00:31:58;;;;;;;12.73;6.32;;;;;;;;;;1038439;28;20462;-77
2022/11/26 00:32:29;;;;;;;7.43;4.13;;;;;;;;;;1039768;28;20014;-77
2022/11/26 00:32:59;;;;;;;9.20;3.78;;;;;;;;;;1039438;28;20115;-77
2022/11/26 00:33:30;;;;;;;22.80;7.13;;;;;;;;;;1039392;28;20769;-77
2022/11/26 00:34:00;;;;;;;9.23;5.32;;;;;;;;;;1039148;28;20037;-77
2022/11/26 00:34:31;;;;;;;9.93;4.45;;;;;;;;;;1035639;28;20069;-77
2022/11/26 00:35:02;;;;;;;12.38;6.18;;;;;;;;;;1035138;28;20022;-77
2022/11/26 00:35:32;;;;;;;7.18;4.53;;;;;;;;;;1039371;28;20068;-77
2022/11/26 00:36:11;;;;;;;10.68;5.63;;;;;;;;;;1039600;28;20014;-77
2022/11/26 00:36:43;;;;;;;8.73;4.30;;;;;;;;;;1039583;28;20466;-77
2022/11/26 00:37:16;;;;;;;5.20;3.38;;;;;;;;;;1039657;28;20025;-77
2022/11/26 00:37:49;;;;;;;13.07;3.28;;;;;;;;;;1039497;28;20432;-77
2022/11/26 00:38:20;;;;;;;7.38;4.32;;;;;;;;;;1039751;28;20018;-77
2022/11/26 00:38:55;;;;;;;7.85;4.57;;;;;;;;;;1039244;28;20049;-77
2022/11/26 00:39:26;;;;;;;11.77;4.38;;;;;;;;;;1039306;28;20112;-77
2022/11/26 00:39:56;;;;;;;10.07;4.05;;;;;;;;;;1039216;28;20401;-77
2022/11/26 00:40:30;;;;;;;5.47;3.08;;;;;;;;;;1039039;28;20029;-77
2022/11/26 00:41:00;;;;;;;11.00;4.18;;;;;;;;;;1038615;28;20104;-77
2022/11/26 00:41:37;;;;;;;9.57;4.28;;;;;;;;;;1039826;28;20009;-77
2022/11/26 00:42:08;;;;;;;6.57;3.47;;;;;;;;;;1038831;28;20036;-77
2022/11/26 00:42:38;;;;;;;4.95;3.88;;;;;;;;;;1039814;28;20009;-77
2022/11/26 00:43:10;;;;;;;8.38;3.97;;;;;;;;;;1039163;28;20065;-77
2022/11/26 00:43:40;;;;;;;13.80;4.85;;;;;;;;;;1039674;28;20393;-77
2022/11/26 00:44:19;;;;;;;13.07;4.70;;;;;;;;;;1039563;28;20080;-77
2022/11/26 00:44:49;;;;;;;8.90;4.60;;;;;;;;;;1039496;28;20367;-77
2022/11/26 00:45:24;;;;;;;11.25;4.85;;;;;;;;;;1039809;28;20104;-77
2022/11/26 00:45:55;;;;;;;7.50;4.05;;;;;;;;;;1038795;28;20489;-77
2022/11/26 00:46:26;;;;;;;12.55;4.72;;;;;;;;;;1035037;28;20018;-77
2022/11/26 00:46:56;;;;;;;10.65;4.38;;;;;;;;;;1035027;28;20501;-77
2022/11/26 00:47:27;;;;;;;9.60;5.30;;;;;;;;;;1035468;28;20034;-77
2022/11/26 00:47:57;;;;;;;8.55;4.75;;;;;;;;;;1037517;28;20108;-77
2022/11/26 00:48:28;;;;;;;6.68;3.70;;;;;;;;;;1036189;28;20026;-77
2022/11/26 00:48:58;;;;;;;8.00;3.70;;;;;;;;;;1034873;28;20552;-77
2022/11/26 00:49:29;;;;;;;12.48;4.00;;;;;;;;;;1035545;28;20083;-77
2022/11/26 00:50:00;;;;;;;8.85;4.30;;;;;;;;;;1039182;28;20049;-77
2022/11/26 00:50:32;;;;;;;10.20;4.20;;;;;;;;;;1039303;28;20080;-77
2022/11/26 00:51:03;;;;;;;5.68;2.88;;;;;;;;;;1039090;28;20096;-77
2022/11/26 00:51:34;;;;;;;10.77;4.72;;;;;;;;;;1039402;28;20111;-77
2022/11/26 00:52:34;;;;;;;13.60;6.97;;;;;;;;;;1039421;28;20032;-77
2022/11/26 00:53:05;;;;;;;8.95;4.65;;;;;;;;;;1035351;28;20056;-77
2022/11/26 00:53:35;;;;;;;6.20;3.72;;;;;;;;;;1040714;28;20033;-77
2022/11/26 00:54:09;;;;;;;9.32;5.03;;;;;;;;;;1040287;28;20028;-77
2022/11/26 00:54:39;;;;;;;9.98;5.07;;;;;;;;;;1040556;28;20473;-77
2022/11/26 00:55:16;;;;;;;8.45;4.22;;;;;;;;;;1040296;28;20056;-77
2022/11/26 00:55:48;;;;;;;8.65;4.68;;;;;;;;;;1040175;28;20389;-77
2022/11/26 00:56:19;;;;;;;7.68;4.00;;;;;;;;;;1040593;28;20069;-77
2022/11/26 00:56:50;;;;;;;7.03;3.78;;;;;;;;;;1040312;28;20445;-77
2022/11/26 00:57:21;;;;;;;5.85;3.78;;;;;;;;;;1039998;28;20021;-77
2022/11/26 00:57:51;;;;;;;10.40;4.10;;;;;;;;;;1039480;28;20017;-77
2022/11/26 00:58:26;;;;;;;7.47;3.03;;;;;;;;;;1040087;28;20009;-77
2022/11/26 00:58:57;;;;;;;6.95;4.40;;;;;;;;;;1036238;28;20072;-77
2022/11/26 00:59:27;;;;;;;7.07;4.47;;;;;;;;;;1040196;28;20465;-77
2022/11/26 00:59:58;;;;;;;7.55;3.92;;;;;;;;;;1039809;28;20060;-77
2022/11/26 01:00:30;;;;;;;17.95;5.00;;;;;;;;;;1040026;28;20024;-77
2022/11/26 01:01:00;;;;;;;7.22;4.10;;;;;;;;;;1043877;28;20464;-77
2022/11/26 01:01:31;;;;;;;11.05;5.07;;;;;;;;;;1043716;28;20039;-77
2022/11/26 01:02:02;;;;;;;17.20;4.20;;;;;;;;;;1039868;28;20077;-77
2022/11/26 01:02:32;;;;;;;6.13;3.55;;;;;;;;;;1035971;28;20037;-77
2022/11/26 01:03:03;;;;;;;12.40;4.63;;;;;;;;;;1031558;28;20039;-77
2022/11/26 01:03:33;;;;;;;8.60;4.97;;;;;;;;;;1031988;28;20030;-77
2022/11/26 01:04:04;;;;;;;9.07;3.92;;;;;;;;;;1035976;28;20053;-77
2022/11/26 01:04:34;;;;;;;12.93;5.90;;;;;;;;;;1040174;28;20029;-77
2022/11/26 01:05:07;;;;;;;7.78;3.80;;;;;;;;;;1040126;28;20104;-77
2022/11/26 01:05:37;;;;;;;3.83;2.80;;;;;;;;;;1039765;28;20021;-77
2022/11/26 01:06:16;;;;;;;10.88;4.03;;;;;;;;;;1039842;28;20025;-77
2022/11/26 01:06:47;;;;;;;14.10;4.95;;;;;;;;;;1039982;28;20029;-77
2022/11/26 01:07:17;;;;;;;7.85;3.88;;;;;;;;;;1036078;28;20080;-77
2022/11/26 01:07:49;;;;;;;6.32;3.65;;;;;;;;;;1036993;28;20564;-77
2022/11/26 01:08:22;;;;;;;9.43;4.82;;;;;;;;;;1040239;28;20036;-78
2022/11/26 01:08:53;;;;;;;6.90;3.95;;;;;;;;;;1035730;28;20560;-78
2022/11/26 01:09:23;;;;;;;8.68;4.15;;;;;;;;;;1040053;28;20107;-78
2022/11/26 01:09:54;;;;;;;7.70;4.88;;;;;;;;;;1039882;28;20104;-78
2022/11/26 01:10:27;;;;;;;8.70;4.13;;;;;;;;;;1040067;28;20112;-78
2022/11/26 01:10:58;;;;;;;6.65;3.15;;;;;;;;;;1039345;28;20104;-78
2022/11/26 01:11:29;;;;;;;5.00;2.92;;;;;;;;;;1040302;28;20028;-78
2022/11/26 01:11:59;;;;;;;6.38;4.47;;;;;;;;;;1035668;28;20663;-78
2022/11/26 01:12:30;;;;;;;9.30;4.93;;;;;;;;;;1036297;28;20113;-77
2022/11/26 01:13:00;;;;;;;7.80;4.60;;;;;;;;;;1039792;28;20055;-77
2022/11/26 01:13:31;;;;;;;8.75;5.03;;;;;;;;;;1040130;28;20481;-77
2022/11/26 01:14:02;;;;;;;12.90;4.65;;;;;;;;;;1043862;28;20535;-77
2022/11/26 01:14:32;;;;;;;14.30;4.97;;;;;;;;;;1040386;28;20017;-77
2022/11/26 01:15:03;;;;;;;6.55;3.72;;;;;;;;;;1040061;28;20120;-77
2022/11/26 01:15:34;;;;;;;9.07;5.22;;;;;;;;;;1040535;28;20116;-77
2022/11/26 01:16:13;;;;;;;6.22;4.18;;;;;;;;;;1040309;28;20033;-77
2022/11/26 01:16:45;;;;;;;11.07;4.28;;;;;;;;;;1040364;28;20070;-77
2022/11/26 01:17:16;;;;;;;7.65;3.20;;;;;;;;;;1039857;28;20025;-77
2022/11/26 01:17:47;;;;;;;6.25;3.63;;;;;;;;;;1039855;28;20021;-77
2022/11/26 01:18:19;;;;;;;7.82;4.00;;;;;;;;;;1040173;28;20492;-77
2022/11/26 01:18:50;;;;;;;11.77;4.63;;;;;;;;;;1039531;28;20076;-77
2022/11/26 01:19:21;;;;;;;7.90;4.03;;;;;;;;;;1040191;28;20067;-78
2022/11/26 01:19:51;;;;;;;8.00;3.75;;;;;;;;;;1040155;28;20080;-78
2022/11/26 01:20:29;;;;;;;5.55;3.00;;;;;;;;;;1040289;28;20029;-78
2022/11/26 01:21:00;;;;;;;6.10;3.75;;;;;;;;;;1040219;28;20075;-78
2022/11/26 01:21:32;;;;;;;5.60;3.50;;;;;;;;;;1039955;28;20029;-78
2022/11/26 01:22:02;;;;;;;10.10;5.50;;;;;;;;;;1035957;28;20132;-78
2022/11/26 01:22:33;;;;;;;6.07;3.15;;;;;;;;;;1031885;28;20526;-78
2022/11/26 01:23:03;;;;;;;7.15;3.65;;;;;;;;;;1031780;28;20030;-78
2022/11/26 01:23:34;;;;;;;13.43;4.32;;;;;;;;;;1036094;28;20022;-78
2022/11/26 01:24:05;;;;;;;6.55;3.80;;;;;;;;;;1039759;28;20481;-78
2022/11/26 01:24:35;;;;;;;11.98;5.43;;;;;;;;;;1040491;28;20017;-78
2022/11/26 01:25:06;;;;;;;11.43;4.75;;;;;;;;;;1040145;28;20067;-78
2022/11/26 01:25:37;;;;;;;5.47;3.42;;;;;;;;;;1039653;28;20504;-78
2022/11/26 01:26:26;;;;;;;6.63;3.60;;;;;;;;;;1039402;28;20500;-78
2022/11/26 01:26:57;;;;;;;9.88;4.03;;;;;;;;;;1038341;28;20052;-78
2022/11/26 01:27:27;;;;;;;3.78;2.67;;;;;;;;;;1038784;28;20378;-78
2022/11/26 01:27:58;;;;;;;4.68;2.92;;;;;;;;;;1037806;28;20080;-78
2022/11/26 01:28:28;;;;;;;6.43;3.30;;;;;;;;;;1039845;28;20057;-78
2022/11/26 01:28:59;;;;;;;7.32;3.45;;;;;;;;;;1035516;28;20056;-78
2022/11/26 01:29:29;;;;;;;9.73;4.80;;;;;;;;;;1035935;28;20112;-78
2022/11/26 01:30:00;;;;;;;6.00;2.63;;;;;;;;;;1040105;28;20048;-77
2022/11/26 01:30:31;;;;;;;6.03;3.72;;;;;;;;;;1035134;28;20025;-77
2022/11/26 01:31:02;;;;;;;6.32;3.28;;;;;;;;;;1038934;28;20025;-78
2022/11/26 01:31:32;;;;;;;6.32;3.60;;;;;;;;;;1040023;28;20022;-78
2022/11/26 01:32:03;;;;;;;7.05;3.85;;;;;;;;;;1035124;28;20041;-78
2022/11/26 01:32:34;;;;;;;7.28;3.15;;;;;;;;;;1039682;28;20469;-78
2022/11/26 01:33:05;;;;;;;9.32;3.58;;;;;;;;;;1039815;28;20029;-78
2022/11/26 01:33:35;;;;;;;7.60;3.58;;;;;;;;;;1039767;28;20013;-78
2022/11/26 01:34:06;;;;;;;9.52;3.28;;;;;;;;;;1039341;28;20026;-78
2022/11/26 01:34:36;;;;;;;9.55;4.15;;;;;;;;;;1038856;28;20103;-79
2022/11/26 01:35:07;;;;;;;12.90;3.90;;;;;;;;;;1039875;28;20045;-78
2022/11/26 01:35:38;;;;;;;7.32;2.78;;;;;;;;;;1039792;28;20031;-78
2022/11/26 01:36:17;;;;;;;9.00;4.00;;;;;;;;;;1038489;28;20595;-78
2022/11/26 01:36:47;;;;;;;12.13;3.42;;;;;;;;;;1038871;28;20124;-78
2022/11/26 01:37:18;;;;;;;5.93;3.33;;;;;;;;;;1035390;28;21239;-78
2022/11/26 01:37:48;;;;;;;6.53;3.22;;;;;;;;;;1036031;28;20022;-78
2022/11/26 01:38:19;;;;;;;12.73;4.03;;;;;;;;;;1035424;28;20104;-78
2022/11/26 01:38:57;;;;;;;6.55;4.22;;;;;;;;;;1039702;28;20033;-78
2022/11/26 01:39:28;;;;;;;9.52;4.03;;;;;;;;;;1039825;28;20053;-78
2022/11/26 01:39:58;;;;;;;9.85;4.72;;;;;;;;;;1039441;28;20031;-78
2022/11/26 01:40:39;;;;;;;9.43;3.53;;;;;;;;;;1039201;28;20473;-78
2022/11/26 01:41:30;;;;;;;10.15;5.05;;;;;;;;;;1040007;28;20107;-78
2022/11/26 01:42:09;;;;;;;6.90;3.35;;;;;;;;;;1036064;28;20029;-78
2022/11/26 01:42:41;;;;;;;8.32;5.13;;;;;;;;;;1039935;28;20080;-78
2022/11/26 01:43:11;;;;;;;7.40;4.50;;;;;;;;;;1039757;28;20017;-78
2022/11/26 01:43:42;;;;;;;6.00;3.67;;;;;;;;;;1040198;28;20029;-78
2022/11/26 01:44:20;;;;;;;7.53;3.17;;;;;;;;;;1040178;28;20025;-79
2022/11/26 01:44:50;;;;;;;12.98;4.60;;;;;;;;;;1039942;28;20490;-79
2022/11/26 01:45:21;;;;;;;6.53;3.97;;;;;;;;;;1039892;28;20017;-78
2022/11/26 01:45:53;;;;;;;8.18;3.58;;;;;;;;;;1039172;28;20160;-78
2022/11/26 01:46:25;;;;;;;5.57;3.30;;;;;;;;;;1039913;28;20021;-78
2022/11/26 01:46:56;;;;;;;6.00;2.58;;;;;;;;;;1035867;28;20032;-78
2022/11/26 01:47:28;;;;;;;5.53;3.35;;;;;;;;;;1039582;28;20104;-78
2022/11/26 01:47:59;;;;;;;7.03;3.58;;;;;;;;;;1040759;28;20013;-80
2022/11/26 01:48:32;;;;;;;7.57;4.25;;;;;;;;;;1041256;28;20413;-79
2022/11/26 01:49:20;;;;;;;13.27;4.47;;;;;;;;;;1042348;28;20460;-79
2022/11/26 01:50:09;;;;;;;6.15;3.30;;;;;;;;;;1042458;28;20021;-79
2022/11/26 01:50:55;;;;;;;6.60;3.10;;;;;;;;;;1041928;28;20029;-79
2022/11/26 01:51:27;;;;;;;6.80;4.20;;;;;;;;;;1038153;28;20018;-79
2022/11/26 01:52:06;;;;;;;7.18;3.67;;;;;;;;;;1037308;28;20018;-79
2022/11/26 01:52:37;;;;;;;6.88;4.05;;;;;;;;;;1038021;28;20105;-78
2022/11/26 01:53:37;;;;;;;12.60;2.70;;;;;;;;;;1037663;28;20029;-79
2022/11/26 01:54:08;;;;;;;10.63;3.92;;;;;;;;;;1027560;28;20036;-79
2022/11/26 01:54:41;;;;;;;5.65;3.40;;;;;;;;;;1040501;28;20112;-79
2022/11/26 01:55:15;;;;;;;4.90;2.83;;;;;;;;;;1040648;28;20017;-79
2022/11/26 01:55:53;;;;;;;7.45;3.50;;;;;;;;;;1042038;28;20025;-79
2022/11/26 01:56:42;;;;;;;7.43;3.33;;;;;;;;;;1041825;28;20017;-79
2022/11/26 01:57:13;;;;;;;6.00;4.10;;;;;;;;;;1037488;28;20018;-78
2022/11/26 01:57:45;;;;;;;8.60;3.13;;;;;;;;;;1033131;28;20027;-79
2022/11/26 01:58:19;;;;;;;7.68;3.42;;;;;;;;;;1032983;28;20027;-78
2022/11/26 01:58:51;;;;;;;6.97;4.22;;;;;;;;;;1030471;28;20526;-78
2022/11/26 01:59:25;;;;;;;4.47;3.20;;;;;;;;;;1033584;28;20026;-78
2022/11/26 01:59:59;;;;;;;5.72;3.15;;;;;;;;;;1038552;28;20514;-77
2022/11/26 02:00:29;;;;;;;6.30;3.90;;;;;;;;;;1042696;28;20108;-77
2022/11/26 02:01:00;;;;;;;9.43;4.15;;;;;;;;;;1044245;28;20010;-77
2022/11/26 02:01:31;;;;;;;5.13;3.13;;;;;;;;;;1045338;28;20024;-79
2022/11/26 02:02:02;;;;;;;5.25;3.35;;;;;;;;;;1041416;28;20489;-79
2022/11/26 02:02:33;;;;;;;5.15;3.10;;;;;;;;;;1040725;28;20022;-79
2022/11/26 02:03:03;;;;;;;3.08;2.63;;;;;;;;;;1041920;28;20037;-79
2022/11/26 02:03:38;;;;;;;10.50;3.88;;;;;;;;;;1040560;28;20097;-79
2022/11/26 02:04:15;;;;;;;6.63;3.15;;;;;;;;;;1036993;28;20057;-79
2022/11/26 02:04:49;;;;;;;11.70;4.53;;;;;;;;;;1037383;28;20030;-78
2022/11/26 02:05:22;;;;;;;6.97;3.33;;;;;;;;;;1038684;28;20028;-79
2022/11/26 02:05:56;;;;;;;7.43;3.45;;;;;;;;;;1039099;28;20045;-79
2022/11/26 02:06:30;;;;;;;6.22;4.05;;;;;;;;;;1041014;28;20067;-79
2022/11/26 02:07:01;;;;;;;7.70;3.97;;;;;;;;;;1037777;28;20040;-78
2022/11/26 02:07:31;;;;;;;6.43;3.80;;;;;;;;;;1038634;28;20025;-78
2022/11/26 02:08:02;;;;;;;6.78;4.20;;;;;;;;;;1036172;28;20026;-78
2022/11/26 02:08:33;;;;;;;5.32;3.63;;;;;;;;;;1035353;28;20026;-77
2022/11/26 02:09:05;;;;;;;8.50;4.18;;;;;;;;;;1039298;28;20045;-77
2022/11/26 02:09:36;;;;;;;8.40;4.55;;;;;;;;;;1039303;28;20028;-77
2022/11/26 02:10:07;;;;;;;9.93;3.22;;;;;;;;;;1040343;28;20036;-78
2022/11/26 02:10:37;;;;;;;8.05;3.78;;;;;;;;;;1039631;28;20986;-79
2022/11/26 02:11:13;;;;;;;12.27;5.15;;;;;;;;;;1039876;28;20034;-79
2022/11/26 02:11:44;;;;;;;7.88;4.30;;;;;;;;;;1039140;28;20105;-79
2022/11/26 02:12:14;;;;;;;7.68;3.95;;;;;;;;;;1039712;28;20055;-79
2022/11/26 02:12:45;;;;;;;4.00;2.38;;;;;;;;;;1035362;28;20022;-79
2022/11/26 02:13:16;;;;;;;7.30;3.20;;;;;;;;;;1031545;28;20030;-79
2022/11/26 02:13:48;;;;;;;8.57;3.63;;;;;;;;;;1035601;28;20556;-79
2022/11/26 02:14:23;;;;;;;8.35;3.60;;;;;;;;;;1035634;28;20080;-79
2022/11/26 02:14:54;;;;;;;7.75;3.75;;;;;;;;;;1039785;28;20120;-79
2022/11/26 02:15:27;;;;;;;7.00;3.40;;;;;;;;;;1040688;28;20013;-79
2022/11/26 02:16:14;;;;;;;7.47;3.05;;;;;;;;;;1039546;28;20026;-79
2022/11/26 02:16:47;;;;;;;5.22;3.95;;;;;;;;;;1036781;28;20045;-79
2022/11/26 02:17:18;;;;;;;7.43;3.70;;;;;;;;;;1038811;28;20021;-79
2022/11/26 02:17:54;;;;;;;10.68;4.13;;;;;;;;;;1040659;28;20022;-79
2022/11/26 02:18:27;;;;;;;11.70;5.93;;;;;;;;;;1040045;28;20064;-79
2022/11/26 02:19:08;;;;;;;12.50;5.68;;;;;;;;;;1040238;28;20033;-79
2022/11/26 02:19:38;;;;;;;6.20;3.95;;;;;;;;;;1040384;28;20079;-78
2022/11/26 02:20:15;;;;;;;5.82;4.30;;;;;;;;;;1039217;28;20071;-78
2022/11/26 02:20:51;;;;;;;7.03;3.42;;;;;;;;;;1036230;28;20030;-79
2022/11/26 02:21:26;;;;;;;6.75;4.05;;;;;;;;;;1035760;28;20017;-78
2022/11/26 02:22:18;;;;;;;9.50;3.78;;;;;;;;;;1037951;28;20045;-78
2022/11/26 02:22:57;;;;;;;5.10;2.97;;;;;;;;;;1040121;28;20018;-78
2022/11/26 02:23:44;;;;;;;6.80;3.10;;;;;;;;;;1035041;28;20029;-78
2022/11/26 02:24:26;;;;;;;8.40;3.75;;;;;;;;;;1030202;28;20118;-78
2022/11/26 02:25:17;;;;;;;8.43;3.58;;;;;;;;;;1034900;28;20044;-78
2022/11/26 02:25:57;;;;;;;9.05;3.83;;;;;;;;;;1034854;28;20021;-79
2022/11/26 02:26:27;;;;;;;6.78;3.65;;;;;;;;;;1039613;28;20033;-78
2022/11/26 02:27:22;;;;;;;7.25;3.92;;;;;;;;;;1034448;28;20592;-78
2022/11/26 02:28:12;;;;;;;20.60;3.13;;;;;;;;;;1034744;28;20109;-78
2022/11/26 02:28:48;;;;;;;5.15;3.35;;;;;;;;;;1034348;28;20116;-78
2022/11/26 02:29:21;;;;;;;5.13;3.10;;;;;;;;;;1032346;28;20514;-78
2022/11/26 02:30:01;;;;;;;6.82;3.38;;;;;;;;;;1036353;28;20022;-78
2022/11/26 02:30:35;;;;;;;6.97;4.10;;;;;;;;;;1034576;28;20117;-79
2022/11/26 02:31:05;;;;;;;5.10;2.70;;;;;;;;;;1037255;28;20256;-78
2022/11/26 02:31:48;;;;;;;7.22;3.42;;;;;;;;;;1039197;28;20021;-77
2022/11/26 02:32:25;;;;;;;14.27;4.07;;;;;;;;;;1038920;28;20021;-78
2022/11/26 02:32:59;;;;;;;9.15;3.50;;;;;;;;;;1039102;28;20017;-78
2022/11/26 02:33:33;;;;;;;9.27;3.72;;;;;;;;;;1035372;28;20057;-78
2022/11/26 02:34:13;;;;;;;10.43;4.60;;;;;;;;;;1034110;28;20017;-78
2022/11/26 02:34:47;;;;;;;6.90;4.28;;;;;;;;;;1035506;28;20094;-78
2022/11/26 02:35:35;;;;;;;7.75;2.83;;;;;;;;;;1041111;28;20108;-78
2022/11/26 02:36:08;;;;;;;10.75;4.10;;;;;;;;;;1043061;28;20436;-79
2022/11/26 02:36:42;;;;;;;6.28;4.18;;;;;;;;;;1043028;28;20590;-78
2022/11/26 02:37:15;;;;;;;7.40;3.15;;;;;;;;;;1037507;28;20048;-78
2022/11/26 02:37:57;;;;;;;7.25;3.58;;;;;;;;;;1039120;28;20028;-78
2022/11/26 02:38:31;;;;;;;6.50;3.20;;;;;;;;;;1034125;28;20021;-78
2022/11/26 02:39:16;;;;;;;6.38;3.22;;;;;;;;;;1034715;28;20034;-78
2022/11/26 02:39:46;;;;;;;5.88;2.95;;;;;;;;;;1035670;28;20049;-78
2022/11/26 02:40:17;;;;;;;8.05;4.07;;;;;;;;;;1038805;28;20025;-78
2022/11/26 02:40:49;;;;;;;5.25;3.45;;;;;;;;;;1040207;28;20418;-78
2022/11/26 02:41:19;;;;;;;6.78;3.83;;;;;;;;;;1040163;28;20417;-78
2022/11/26 02:41:52;;;;;;;7.65;3.53;;;;;;;;;;1039437;28;20439;-78
2022/11/26 02:42:23;;;;;;;8.70;4.57;;;;;;;;;;1038795;28;20025;-78
2022/11/26 02:42:53;;;;;;;7.00;3.30;;;;;;;;;;1038520;28;20061;-78
2022/11/26 02:43:25;;;;;;;6.72;3.80;;;;;;;;;;1037764;28;20042;-79
2022/11/26 02:43:55;;;;;;;8.00;4.05;;;;;;;;;;1038209;28;20105;-78
2022/11/26 02:44:32;;;;;;;10.25;3.28;;;;;;;;;;1035172;28;20022;-78
2022/11/26 02:45:05;;;;;;;6.55;3.10;;;;;;;;;;1035627;28;20066;-78
2022/11/26 02:45:39;;;;;;;5.57;3.28;;;;;;;;;;1035742;28;20024;-78
2022/11/26 02:46:12;;;;;;;6.78;3.45;;;;;;;;;;1038212;28;20026;-78
2022/11/26 02:46:44;;;;;;;5.82;2.60;;;;;;;;;;1041569;28;20121;-79
2022/11/26 02:47:16;;;;;;;7.40;3.08;;;;;;;;;;1042572;28;20481;-78
2022/11/26 02:47:49;;;;;;;4.63;2.88;;;;;;;;;;1042498;28;20435;-78
2022/11/26 02:48:24;;;;;;;5.65;3.30;;;;;;;;;;1038355;28;20018;-78
2022/11/26 02:48:55;;;;;;;6.20;2.67;;;;;;;;;;1039527;28;20079;-79
2022/11/26 02:49:26;;;;;;;4.53;3.08;;;;;;;;;;1039827;28;20075;-79
2022/11/26 02:49:58;;;;;;;4.72;2.78;;;;;;;;;;1037609;28;20526;-78
2022/11/26 02:50:34;;;;;;;6.90;3.55;;;;;;;;;;1039660;28;20544;-78
2022/11/26 02:51:07;;;;;;;5.63;2.72;;;;;;;;;;1036750;28;20380;-79
2022/11/26 02:51:38;;;;;;;3.05;2.25;;;;;;;;;;1037105;28;20017;-79
2022/11/26 02:52:10;;;;;;;7.82;3.80;;;;;;;;;;1036590;28;20018;-78
2022/11/26 02:52:41;;;;;;;3.20;2.67;;;;;;;;;;1039238;28;20029;-78
2022/11/26 02:53:13;;;;;;;8.40;3.65;;;;;;;;;;1039208;28;20450;-78
2022/11/26 02:53:45;;;;;;;7.30;3.90;;;;;;;;;;1035084;28;20014;-78
2022/11/26 02:54:17;;;;;;;10.00;4.35;;;;;;;;;;1034771;28;20054;-78
2022/11/26 02:54:49;;;;;;;8.05;4.53;;;;;;;;;;1035892;28;20026;-78
2022/11/26 02:55:23;;;;;;;6.95;4.22;;;;;;;;;;1035402;28;20057;-78
2022/11/26 02:56:00;;;;;;;8.27;4.75;;;;;;;;;;1034506;28;20026;-78
2022/11/26 02:56:30;;;;;;;7.05;3.50;;;;;;;;;;1034836;28;20014;-78
2022/11/26 02:57:02;;;;;;;6.47;3.15;;;;;;;;;;1036709;28;20022;-78
2022/11/26 02:57:35;;;;;;;7.28;3.33;;;;;;;;;;1036552;28;20051;-79
2022/11/26 02:58:06;;;;;;;6.07;3.78;;;;;;;;;;1039084;28;20029;-80
2022/11/26 02:58:37;;;;;;;6.15;3.30;;;;;;;;;;1040622;28;20059;-79
2022/11/26 02:59:08;;;;;;;5.32;3.08;;;;;;;;;;1036317;28;20788;-78
2022/11/26 02:59:40;;;;;;;5.53;3.38;;;;;;;;;;1039947;28;20587;-79
2022/11/26 03:00:11;;;;;;;4.30;3.00;;;;;;;;;;1036448;28;20035;-80
2022/11/26 03:00:42;;;;;;;4.38;2.90;;;;;;;;;;1041011;28;20038;-78
2022/11/26 03:01:16;;;;;;;6.85;3.72;;;;;;;;;;1042430;28;20096;-78
2022/11/26 03:01:52;;;;;;;7.93;4.00;;;;;;;;;;1040814;28;20452;-78
2022/11/26 03:02:29;;;;;;;8.13;2.70;;;;;;;;;;1037780;28;20079;-78
2022/11/26 03:03:07;;;;;;;6.65;3.05;;;;;;;;;;1041457;28;20504;-78
2022/11/26 03:03:49;;;;;;;4.55;3.42;;;;;;;;;;1040239;28;20512;-79
2022/11/26 03:04:21;;;;;;;6.38;3.35;;;;;;;;;;1040642;28;20017;-78
2022/11/26 03:04:55;;;;;;;4.55;2.15;;;;;;;;;;1041060;28;20021;-78
2022/11/26 03:05:26;;;;;;;4.20;2.60;;;;;;;;;;1038749;28;20026;-79
2022/11/26 03:06:08;;;;;;;6.07;4.07;;;;;;;;;;1036459;28;20014;-79
2022/11/26 03:06:39;;;;;;;6.38;2.85;;;;;;;;;;1040614;28;20673;-78
2022/11/26 03:07:12;;;;;;;6.80;3.53;;;;;;;;;;1039788;28;20025;-79
2022/11/26 03:07:44;;;;;;;5.03;3.08;;;;;;;;;;1041248;28;20032;-79
2022/11/26 03:08:15;;;;;;;7.25;3.85;;;;;;;;;;1036024;28;20022;-80
2022/11/26 03:08:48;;;;;;;9.77;2.88;;;;;;;;;;1031416;28;20589;-79
2022/11/26 03:09:21;;;;;;;14.55;3.63;;;;;;;;;;1028701;28;20016;-78
2022/11/26 03:09:59;;;;;;;5.25;3.00;;;;;;;;;;1033293;28;20080;-78
2022/11/26 03:10:30;;;;;;;6.05;4.13;;;;;;;;;;1051104;23;20022;-78
2022/11/26 03:11:01;;;;;;;6.30;3.60;;;;;;;;;;1036762;28;20084;-81
2022/11/26 03:11:31;;;;;;;7.18;3.97;;;;;;;;;;1041013;28;20026;-85
2022/11/26 03:12:02;;;;;;;5.53;3.47;;;;;;;;;;1041007;28;20013;-82
2022/11/26 03:12:33;;;;;;;8.10;3.65;;;;;;;;;;1034866;28;20104;-81
2022/11/26 03:13:04;;;;;;;6.43;3.45;;;;;;;;;;1037250;28;20064;-80
2022/11/26 03:13:35;;;;;;;5.03;2.58;;;;;;;;;;1033558;28;20018;-83
2022/11/26 03:14:40;;;;;;;6.75;3.25;;;;;;;;;;1028885;28;20549;-77
2022/11/26 03:15:11;;;;;;;9.00;4.40;;;;;;;;;;1030897;28;20029;-76
2022/11/26 03:15:41;;;;;;;13.73;5.22;;;;;;;;;;1034371;28;20034;-77
2022/11/26 03:16:12;;;;;;;7.22;3.97;;;;;;;;;;1030376;28;20687;-74
2022/11/26 03:16:42;;;;;;;9.93;4.13;;;;;;;;;;1031289;28;20098;-75
2022/11/26 03:17:13;;;;;;;6.43;3.47;;;;;;;;;;1031959;28;20117;-75
2022/11/26 03:17:44;;;;;;;9.60;5.30;;;;;;;;;;1030605;28;20489;-75
2022/11/26 03:18:15;;;;;;;8.98;3.75;;;;;;;;;;1032155;28;20513;-74
2022/11/26 03:18:45;;;;;;;9.15;5.13;;;;;;;;;;1027465;28;20011;-75